createdAt,value
2018-09-10T00:01:04.025Z,16.30
2018-09-10T00:03:32.177Z,16.20
2018-09-10T00:06:00.340Z,16.20
2018-09-10T00:08:28.505Z,16.10
2018-09-10T00:10:56.625Z,16.10
2018-09-10T00:13:24.748Z,16.10
2018-09-10T00:15:52.846Z,16.10
2018-09-10T00:18:20.920Z,16.10
2018-09-10T00:20:49.124Z,16.10
2018-09-10T00:23:17.199Z,16.10
2018-09-10T00:25:45.390Z,16.00
2018-09-10T00:28:13.472Z,16.00
2018-09-10T00:30:41.608Z,16.00
2018-09-10T00:33:09.778Z,16.00
2018-09-10T00:35:37.881Z,16.00
2018-09-10T00:38:06.026Z,16.00
2018-09-10T00:40:34.137Z,16.00
2018-09-10T00:43:02.278Z,16.00
2018-09-10T00:45:30.414Z,15.90
2018-09-10T00:47:58.536Z,15.90
2018-09-10T00:50:26.652Z,16.00
2018-09-10T00:52:54.735Z,15.90
2018-09-10T00:55:22.832Z,15.80
2018-09-10T00:57:50.945Z,15.80
2018-09-10T01:00:19.178Z,15.80
2018-09-10T01:02:47.329Z,15.80
2018-09-10T01:05:15.472Z,15.70
2018-09-10T01:07:43.680Z,15.70
2018-09-10T01:10:11.911Z,15.70
2018-09-10T01:12:40.038Z,15.60
2018-09-10T01:15:08.288Z,15.60
2018-09-10T01:17:36.398Z,15.60
2018-09-10T01:20:04.845Z,15.60
2018-09-10T01:22:33.004Z,15.60
2018-09-10T01:25:01.106Z,15.50
2018-09-10T01:27:29.225Z,15.50
2018-09-10T01:29:57.321Z,15.40
2018-09-10T01:32:25.469Z,15.50
2018-09-10T01:34:59.410Z,15.40
2018-09-10T01:37:27.499Z,15.40
2018-09-10T01:39:55.788Z,15.40
2018-09-10T01:42:23.864Z,15.40
2018-09-10T01:44:51.987Z,15.50
2018-09-10T01:47:20.130Z,15.50
2018-09-10T01:49:48.228Z,15.50
2018-09-10T01:52:16.405Z,15.50
2018-09-10T01:54:44.487Z,15.50
2018-09-10T01:57:12.594Z,15.60
2018-09-10T01:59:40.696Z,15.50
2018-09-10T02:02:08.794Z,15.40
2018-09-10T02:04:36.970Z,15.40
2018-09-10T02:07:05.187Z,15.30
2018-09-10T02:09:33.286Z,15.30
2018-09-10T02:12:01.370Z,15.30
2018-09-10T02:14:29.459Z,15.30
2018-09-10T02:16:57.652Z,15.30
2018-09-10T02:19:25.729Z,15.30
2018-09-10T02:21:53.861Z,15.20
2018-09-10T02:24:21.914Z,15.20
2018-09-10T02:26:49.959Z,15.20
2018-09-10T02:29:18.086Z,15.10
2018-09-10T02:31:46.275Z,15.10
2018-09-10T02:34:14.367Z,15.20
2018-09-10T02:36:42.423Z,15.20
2018-09-10T02:39:10.630Z,15.20
2018-09-10T02:41:42.059Z,15.20
2018-09-10T02:44:10.960Z,15.20
2018-09-10T02:46:39.063Z,15.20
2018-09-10T02:49:07.242Z,15.30
2018-09-10T02:51:35.417Z,15.30
2018-09-10T02:54:03.509Z,15.30
2018-09-10T02:56:31.636Z,15.40
2018-09-10T02:59:00.092Z,15.30
2018-09-10T03:01:28.206Z,15.30
2018-09-10T03:03:56.426Z,15.30
2018-09-10T03:06:24.513Z,15.30
2018-09-10T03:08:52.639Z,15.20
2018-09-10T03:11:21.505Z,15.20
2018-09-10T03:13:49.563Z,15.10
2018-09-10T03:16:17.642Z,15.10
2018-09-10T03:18:45.775Z,15.20
2018-09-10T03:21:13.925Z,15.20
2018-09-10T03:23:41.948Z,15.20
2018-09-10T03:26:10.030Z,15.20
2018-09-10T03:28:38.106Z,15.30
2018-09-10T03:31:06.398Z,15.30
2018-09-10T03:33:34.575Z,15.30
2018-09-10T03:36:02.652Z,15.30
2018-09-10T03:38:30.749Z,15.30
2018-09-10T03:40:58.826Z,15.30
2018-09-10T03:43:26.905Z,15.30
2018-09-10T03:45:55.036Z,15.30
2018-09-10T03:48:23.142Z,15.30
2018-09-10T03:50:51.240Z,15.30
2018-09-10T03:53:19.353Z,15.30
2018-09-10T03:55:47.497Z,15.30
2018-09-10T03:58:15.603Z,15.30
2018-09-10T04:00:43.697Z,15.30
2018-09-10T04:03:11.764Z,15.30
2018-09-10T04:05:39.933Z,15.40
2018-09-10T04:08:08.410Z,15.40
2018-09-10T04:10:36.618Z,15.40
2018-09-10T04:13:04.779Z,15.40
2018-09-10T04:15:32.895Z,15.40
2018-09-10T04:18:00.954Z,15.40
2018-09-10T04:20:29.653Z,15.30
2018-09-10T04:22:57.770Z,15.30
2018-09-10T04:25:25.859Z,15.20
2018-09-10T04:27:54.001Z,15.20
2018-09-10T04:30:22.168Z,15.20
2018-09-10T04:32:50.325Z,15.20
2018-09-10T04:35:18.429Z,15.20
2018-09-10T04:37:46.548Z,15.20
2018-09-10T04:40:14.628Z,15.10
2018-09-10T04:42:42.763Z,15.20
2018-09-10T04:45:10.866Z,15.20
2018-09-10T04:47:39.138Z,15.30
2018-09-10T04:50:07.420Z,15.20
2018-09-10T04:52:35.540Z,15.30
2018-09-10T04:55:03.853Z,15.30
2018-09-10T04:57:31.992Z,15.30
2018-09-10T05:00:01.098Z,15.30
2018-09-10T05:02:29.204Z,15.30
2018-09-10T05:04:57.327Z,15.40
2018-09-10T05:07:25.430Z,15.30
2018-09-10T05:09:53.585Z,15.30
2018-09-10T05:12:21.725Z,15.40
2018-09-10T05:14:49.833Z,15.40
2018-09-10T05:17:17.966Z,15.40
2018-09-10T05:19:46.113Z,15.60
2018-09-10T05:22:14.215Z,15.60
2018-09-10T05:24:42.356Z,15.60
2018-09-10T05:27:11.874Z,15.70
2018-09-10T05:29:40.278Z,15.80
2018-09-10T05:32:08.401Z,16.00
2018-09-10T05:34:36.628Z,16.10
2018-09-10T05:37:04.793Z,16.20
2018-09-10T05:39:32.962Z,16.40
2018-09-10T05:42:01.092Z,16.50
2018-09-10T05:44:29.206Z,16.70
2018-09-10T05:46:57.293Z,16.90
2018-09-10T05:49:25.418Z,17.00
2018-09-10T05:51:53.491Z,17.20
2018-09-10T05:54:21.613Z,17.30
2018-09-10T05:56:49.735Z,17.50
2018-09-10T05:59:17.834Z,17.60
2018-09-10T06:01:45.954Z,17.80
2018-09-10T06:04:14.005Z,18.00
2018-09-10T06:06:42.179Z,18.10
2018-09-10T06:09:10.362Z,18.30
2018-09-10T06:11:38.448Z,18.50
2018-09-10T06:14:06.679Z,18.60
2018-09-10T06:16:34.786Z,18.70
2018-09-10T06:19:02.941Z,18.90
2018-09-10T06:21:31.213Z,19.10
2018-09-10T06:24:00.495Z,19.40
2018-09-10T06:26:28.577Z,19.40
2018-09-10T06:28:56.854Z,19.60
2018-09-10T06:31:25.096Z,20.00
2018-09-10T06:33:55.094Z,20.10
2018-09-10T06:36:23.475Z,20.20
2018-09-10T06:38:51.607Z,20.40
2018-09-10T06:41:19.665Z,20.40
2018-09-10T06:43:50.236Z,20.40
2018-09-10T06:46:18.437Z,20.70
2018-09-10T06:48:46.547Z,20.80
2018-09-10T06:51:14.651Z,20.90
2018-09-10T06:53:42.749Z,21.10
2018-09-10T06:56:10.834Z,21.40
2018-09-10T06:58:38.899Z,21.50
2018-09-10T07:01:07.008Z,21.70
2018-09-10T07:03:35.080Z,22.20
2018-09-10T07:06:03.151Z,22.60
2018-09-10T07:08:31.269Z,23.00
2018-09-10T07:10:59.328Z,23.40
2018-09-10T07:13:27.389Z,23.90
2018-09-10T07:15:55.563Z,24.30
2018-09-10T07:18:23.787Z,24.40
2018-09-10T07:20:52.011Z,24.70
2018-09-10T07:23:20.341Z,25.00
2018-09-10T07:25:48.456Z,25.60
2018-09-10T07:28:16.612Z,26.10
2018-09-10T07:30:44.714Z,26.50
2018-09-10T07:33:12.861Z,27.50
2018-09-10T07:35:41.505Z,27.40
2018-09-10T07:38:09.686Z,27.10
2018-09-10T07:40:37.781Z,27.40
2018-09-10T07:43:05.872Z,28.30
2018-09-10T07:45:34.033Z,28.50
2018-09-10T07:48:02.125Z,28.20
2018-09-10T07:50:30.261Z,28.80
2018-09-10T07:52:58.466Z,29.60
2018-09-10T07:55:26.590Z,29.20
2018-09-10T07:57:54.753Z,28.60
2018-09-10T08:00:22.875Z,28.80
2018-09-10T08:02:51.063Z,29.60
2018-09-10T08:05:19.156Z,29.90
2018-09-10T08:07:47.228Z,29.60
2018-09-10T08:10:15.347Z,29.60
2018-09-10T08:12:43.486Z,29.40
2018-09-10T08:15:11.614Z,29.60
2018-09-10T08:17:40.043Z,29.90
2018-09-10T08:20:08.427Z,30.60
2018-09-10T08:22:36.572Z,29.80
2018-09-10T08:25:04.850Z,30.10
2018-09-10T08:27:33.046Z,30.80
2018-09-10T08:30:01.198Z,31.20
2018-09-10T08:32:29.273Z,32.50
2018-09-10T08:34:57.395Z,32.40
2018-09-10T08:37:25.467Z,32.60
2018-09-10T08:39:53.592Z,33.00
2018-09-10T08:42:21.653Z,32.70
2018-09-10T08:44:49.748Z,33.30
2018-09-10T08:47:17.842Z,33.70
2018-09-10T08:49:45.985Z,33.50
2018-09-10T08:52:14.218Z,33.50
2018-09-10T08:54:42.710Z,33.20
2018-09-10T08:57:10.471Z,34.60
2018-09-10T08:59:38.570Z,33.80
2018-09-10T09:02:06.865Z,32.60
2018-09-10T09:04:34.990Z,32.70
2018-09-10T09:07:03.147Z,33.80
2018-09-10T09:09:31.949Z,33.60
2018-09-10T09:12:00.076Z,33.60
2018-09-10T09:14:28.344Z,33.40
2018-09-10T09:16:56.590Z,33.30
2018-09-10T09:19:24.739Z,33.90
2018-09-10T09:21:52.964Z,33.40
2018-09-10T09:24:21.083Z,34.40
2018-09-10T09:26:49.293Z,33.90
2018-09-10T09:29:17.381Z,34.30
2018-09-10T09:31:45.634Z,34.50
2018-09-10T09:34:13.734Z,34.80
2018-09-10T09:36:47.235Z,34.90
2018-09-10T09:39:20.729Z,35.00
2018-09-10T09:41:54.339Z,35.00
2018-09-10T09:44:27.883Z,34.30
2018-09-10T09:46:56.020Z,34.60
2018-09-10T09:49:32.506Z,35.80
2018-09-10T09:52:00.618Z,36.30
2018-09-10T09:54:28.762Z,36.40
2018-09-10T09:56:56.944Z,35.80
2018-09-10T09:59:25.132Z,35.70
2018-09-10T10:01:57.812Z,36.00
2018-09-10T10:04:25.920Z,36.10
2018-09-10T10:06:54.110Z,36.00
2018-09-10T10:09:22.230Z,36.00
2018-09-10T10:11:50.455Z,36.20
2018-09-10T10:14:18.631Z,36.80
2018-09-10T10:16:46.798Z,36.90
2018-09-10T10:19:14.959Z,36.40
2018-09-10T10:21:43.185Z,37.00
2018-09-10T10:24:11.441Z,36.90
2018-09-10T10:26:39.562Z,36.60
2018-09-10T10:29:07.641Z,35.60
2018-09-10T10:31:35.752Z,36.20
2018-09-10T10:34:03.981Z,36.30
2018-09-10T10:36:32.097Z,35.90
2018-09-10T10:39:00.264Z,35.70
2018-09-10T10:41:28.343Z,35.10
2018-09-10T10:43:56.454Z,35.20
2018-09-10T10:46:24.553Z,35.90
2018-09-10T10:48:52.612Z,35.60
2018-09-10T10:51:20.750Z,35.70
2018-09-10T10:53:49.707Z,35.60
2018-09-10T10:56:17.881Z,35.40
2018-09-10T10:58:45.976Z,35.50
2018-09-10T11:01:14.152Z,36.20
2018-09-10T11:03:42.275Z,36.60
2018-09-10T11:06:10.426Z,35.90
2018-09-10T11:08:38.540Z,36.20
2018-09-10T11:11:06.679Z,36.00
2018-09-10T11:13:34.880Z,35.70
2018-09-10T11:16:03.016Z,35.40
2018-09-10T11:18:31.140Z,35.70
2018-09-10T11:20:59.229Z,36.70
2018-09-10T11:23:27.349Z,36.70
2018-09-10T11:25:55.536Z,37.90
2018-09-10T11:28:23.685Z,37.70
2018-09-10T11:30:51.834Z,38.60
2018-09-10T11:33:19.983Z,38.20
2018-09-10T11:35:48.098Z,37.60
2018-09-10T11:38:16.180Z,37.70
2018-09-10T11:40:44.995Z,38.40
2018-09-10T11:43:13.109Z,39.10
2018-09-10T11:45:41.311Z,39.50
2018-09-10T11:48:09.638Z,39.10
2018-09-10T11:50:37.733Z,39.20
2018-09-10T11:53:05.895Z,39.60
2018-09-10T11:55:34.064Z,39.20
2018-09-10T11:58:02.179Z,38.20
2018-09-10T12:00:30.410Z,38.20
2018-09-10T12:02:58.529Z,37.90
2018-09-10T12:05:30.623Z,38.30
2018-09-10T12:08:03.580Z,38.00
2018-09-10T12:10:31.692Z,38.40
2018-09-10T12:12:59.825Z,37.90
2018-09-10T12:15:28.001Z,37.70
2018-09-10T12:17:56.156Z,37.00
2018-09-10T12:20:24.280Z,37.00
2018-09-10T12:22:52.363Z,37.80
2018-09-10T12:25:20.493Z,37.30
2018-09-10T12:27:48.661Z,37.50
2018-09-10T12:30:16.787Z,37.00
2018-09-10T12:32:44.903Z,36.90
2018-09-10T12:35:13.032Z,37.10
2018-09-10T12:37:41.275Z,36.90
2018-09-10T12:40:09.364Z,37.00
2018-09-10T12:42:37.444Z,36.90
2018-09-10T12:45:05.565Z,37.20
2018-09-10T12:47:33.668Z,37.20
2018-09-10T12:50:01.807Z,37.40
2018-09-10T12:52:30.828Z,37.80
2018-09-10T12:54:58.959Z,37.40
2018-09-10T12:57:27.042Z,38.50
2018-09-10T12:59:55.133Z,39.00
2018-09-10T13:02:23.311Z,39.40
2018-09-10T13:04:51.367Z,38.90
2018-09-10T13:07:20.390Z,39.20
2018-09-10T13:09:48.479Z,39.20
2018-09-10T13:12:16.602Z,39.50
2018-09-10T13:14:44.703Z,39.20
2018-09-10T13:17:12.760Z,40.50
2018-09-10T13:19:40.908Z,40.70
2018-09-10T13:22:09.091Z,41.20
2018-09-10T13:24:37.151Z,41.20
2018-09-10T13:27:05.419Z,40.70
2018-09-10T13:29:33.577Z,40.20
2018-09-10T13:32:01.710Z,40.20
2018-09-10T13:34:29.827Z,40.70
2018-09-10T13:36:58.007Z,41.30
2018-09-10T13:39:26.170Z,40.70
2018-09-10T13:41:54.422Z,39.90
2018-09-10T13:44:22.571Z,39.70
2018-09-10T13:46:50.756Z,39.50
2018-09-10T13:49:18.868Z,39.20
2018-09-10T13:51:46.977Z,38.80
2018-09-10T13:54:15.184Z,39.10
2018-09-10T13:56:43.250Z,38.90
2018-09-10T13:59:11.355Z,39.00
2018-09-10T14:01:39.554Z,38.40
2018-09-10T14:04:07.707Z,38.20
2018-09-10T14:06:35.877Z,38.10
2018-09-10T14:09:05.118Z,39.10
2018-09-10T14:11:33.351Z,39.00
2018-09-10T14:14:01.526Z,38.60
2018-09-10T14:16:29.651Z,38.60
2018-09-10T14:18:57.846Z,37.60
2018-09-10T14:21:25.997Z,36.70
2018-09-10T14:23:54.157Z,35.90
2018-09-10T14:26:22.293Z,35.20
2018-09-10T14:28:50.392Z,34.60
2018-09-10T14:31:18.555Z,34.10
2018-09-10T14:33:46.683Z,33.30
2018-09-10T14:36:14.746Z,32.40
2018-09-10T14:38:42.842Z,31.70
2018-09-10T14:41:11.242Z,31.50
2018-09-10T14:43:39.340Z,31.00
2018-09-10T14:46:07.605Z,30.60
2018-09-10T14:48:35.694Z,30.40
2018-09-10T14:51:03.839Z,30.30
2018-09-10T14:53:31.981Z,30.00
2018-09-10T14:56:00.086Z,30.00
2018-09-10T14:58:28.229Z,30.00
2018-09-10T15:00:56.299Z,29.90
2018-09-10T15:03:25.315Z,29.90
2018-09-10T15:05:53.515Z,29.70
2018-09-10T15:08:21.637Z,29.60
2018-09-10T15:10:49.779Z,29.40
2018-09-10T15:13:17.905Z,29.30
2018-09-10T15:15:46.002Z,29.10
2018-09-10T15:18:14.235Z,29.00
2018-09-10T15:20:42.407Z,28.90
2018-09-10T15:23:10.602Z,28.90
2018-09-10T15:25:38.690Z,28.80
2018-09-10T15:28:06.763Z,28.80
2018-09-10T15:30:34.866Z,28.70
2018-09-10T15:33:02.939Z,28.60
2018-09-10T15:35:30.985Z,28.60
2018-09-10T15:37:59.126Z,28.50
2018-09-10T15:40:27.251Z,28.30
2018-09-10T15:42:55.342Z,28.00
2018-09-10T15:45:23.518Z,28.00
2018-09-10T15:47:51.589Z,27.90
2018-09-10T15:50:19.719Z,27.70
2018-09-10T15:52:47.789Z,27.60
2018-09-10T15:55:15.918Z,27.50
2018-09-10T15:57:44.061Z,27.50
2018-09-10T16:00:12.988Z,27.40
2018-09-10T16:02:41.042Z,27.30
2018-09-10T16:05:09.196Z,27.10
2018-09-10T16:07:37.277Z,26.90
2018-09-10T16:10:05.526Z,26.70
2018-09-10T16:12:33.642Z,26.60
2018-09-10T16:15:01.754Z,26.60
2018-09-10T16:17:29.845Z,26.40
2018-09-10T16:19:58.038Z,26.30
2018-09-10T16:22:26.108Z,26.20
2018-09-10T16:24:54.226Z,26.10
2018-09-10T16:27:22.369Z,26.00
2018-09-10T16:29:50.522Z,25.90
2018-09-10T16:32:18.714Z,25.70
2018-09-10T16:34:46.856Z,25.70
2018-09-10T16:37:14.987Z,25.60
2018-09-10T16:39:43.306Z,25.50
2018-09-10T16:42:11.427Z,25.40
2018-09-10T16:44:39.506Z,25.30
2018-09-10T16:47:07.679Z,25.20
2018-09-10T16:49:35.844Z,25.00
2018-09-10T16:52:03.966Z,24.90
2018-09-10T16:54:32.169Z,24.90
2018-09-10T16:57:00.274Z,24.80
2018-09-10T16:59:28.417Z,24.60
2018-09-10T17:01:56.559Z,24.50
2018-09-10T17:04:25.289Z,24.40
2018-09-10T17:06:53.371Z,24.20
2018-09-10T17:09:21.488Z,24.10
2018-09-10T17:11:49.562Z,24.00
2018-09-10T17:14:17.885Z,23.90
2018-09-10T17:16:45.995Z,23.70
2018-09-10T17:19:14.103Z,23.50
2018-09-10T17:21:42.175Z,23.40
2018-09-10T17:24:10.301Z,23.20
2018-09-10T17:26:38.379Z,23.00
2018-09-10T17:29:07.032Z,22.90
2018-09-10T17:31:35.216Z,22.80
2018-09-10T17:34:03.383Z,22.70
2018-09-10T17:36:31.602Z,22.60
2018-09-10T17:38:59.724Z,22.50
2018-09-10T17:41:28.728Z,22.40
2018-09-10T17:43:56.831Z,22.40
2018-09-10T17:46:25.014Z,22.30
2018-09-10T17:48:53.335Z,22.10
2018-09-10T17:51:21.527Z,21.90
2018-09-10T17:53:49.800Z,21.80
2018-09-10T17:56:18.023Z,21.70
2018-09-10T17:58:46.220Z,21.70
2018-09-10T18:01:14.443Z,21.60
2018-09-10T18:03:43.537Z,21.60
2018-09-10T18:06:11.786Z,21.50
2018-09-10T18:08:39.989Z,21.40
2018-09-10T18:11:08.409Z,21.40
2018-09-10T18:13:36.721Z,21.30
2018-09-10T18:16:04.919Z,21.20
2018-09-10T18:18:33.045Z,21.20
2018-09-10T18:21:01.166Z,21.10
2018-09-10T18:23:29.312Z,21.10
2018-09-10T18:25:57.434Z,21.00
2018-09-10T18:28:25.663Z,20.90
2018-09-10T18:30:53.765Z,20.80
2018-09-10T18:33:21.905Z,20.80
2018-09-10T18:35:50.026Z,20.70
2018-09-10T18:38:18.164Z,20.70
2018-09-10T18:40:46.368Z,20.60
2018-09-10T18:43:14.613Z,20.60
2018-09-10T18:45:42.910Z,20.60
2018-09-10T18:48:11.639Z,20.50
2018-09-10T18:50:39.762Z,20.40
2018-09-10T18:53:08.021Z,20.40
2018-09-10T18:55:36.179Z,20.30
2018-09-10T18:58:04.469Z,20.30
2018-09-10T19:00:32.765Z,20.20
2018-09-10T19:03:00.954Z,20.20
2018-09-10T19:05:29.185Z,20.00
2018-09-10T19:07:57.338Z,20.00
2018-09-10T19:10:25.507Z,20.00
2018-09-10T19:12:53.823Z,19.90
2018-09-10T19:15:22.035Z,19.90
2018-09-10T19:17:50.265Z,19.80
2018-09-10T19:20:18.464Z,19.80
2018-09-10T19:22:46.690Z,19.70
2018-09-10T19:25:14.921Z,19.60
2018-09-10T19:27:43.209Z,19.60
2018-09-10T19:30:12.356Z,19.60
2018-09-10T19:32:40.460Z,19.50
2018-09-10T19:35:08.709Z,19.40
2018-09-10T19:37:37.741Z,19.40
2018-09-10T19:40:05.893Z,19.40
2018-09-10T19:42:34.152Z,19.30
2018-09-10T19:45:03.347Z,19.20
2018-09-10T19:47:31.534Z,19.30
2018-09-10T19:49:59.713Z,19.20
2018-09-10T19:52:27.908Z,19.10
2018-09-10T19:54:56.278Z,19.00
2018-09-10T19:57:24.439Z,18.90
2018-09-10T19:59:52.628Z,18.90
2018-09-10T20:02:20.804Z,18.90
2018-09-10T20:04:49.013Z,18.90
2018-09-10T20:07:17.286Z,18.80
2018-09-10T20:09:45.565Z,18.80
2018-09-10T20:12:13.649Z,18.80
2018-09-10T20:14:41.859Z,18.80
2018-09-10T20:17:10.060Z,18.70
2018-09-10T20:19:38.492Z,18.60
2018-09-10T20:22:07.228Z,18.50
2018-09-10T20:24:35.410Z,18.50
2018-09-10T20:27:03.655Z,18.50
2018-09-10T20:29:31.802Z,18.40
2018-09-10T20:31:59.972Z,18.30
2018-09-10T20:34:28.091Z,18.30
2018-09-10T20:36:56.252Z,18.30
2018-09-10T20:39:24.434Z,18.30
2018-09-10T20:41:52.566Z,18.20
2018-09-10T20:44:20.659Z,18.20
2018-09-10T20:46:48.842Z,18.20
2018-09-10T20:49:16.934Z,18.20
2018-09-10T20:51:45.068Z,18.20
2018-09-10T20:54:13.165Z,18.10
2018-09-10T20:56:41.296Z,18.10
2018-09-10T20:59:09.448Z,18.00
2018-09-10T21:01:37.643Z,18.00
2018-09-10T21:04:05.834Z,17.90
2018-09-10T21:06:34.088Z,17.90
2018-09-10T21:11:40.092Z,17.90
2018-09-10T21:14:08.267Z,17.70
2018-09-10T21:16:36.448Z,17.70
2018-09-10T21:19:04.713Z,17.70
2018-09-10T21:21:32.863Z,17.60
2018-09-10T21:24:01.031Z,17.60
2018-09-10T21:26:29.104Z,17.60
2018-09-10T21:28:57.205Z,17.60
2018-09-10T21:31:25.335Z,17.50
2018-09-10T21:33:53.416Z,17.50
2018-09-10T21:36:21.488Z,17.50
2018-09-10T21:38:49.686Z,17.50
2018-09-10T21:41:17.874Z,17.50
2018-09-10T21:43:45.992Z,17.50
2018-09-10T21:46:14.105Z,17.50
2018-09-10T21:48:42.218Z,17.50
2018-09-10T21:51:10.404Z,17.50
2018-09-10T21:53:38.545Z,17.50
2018-09-10T21:56:06.720Z,17.40
2018-09-10T21:58:34.863Z,17.30
2018-09-10T22:01:02.989Z,17.30
2018-09-10T22:03:31.078Z,17.20
2018-09-10T22:05:59.201Z,17.20
2018-09-10T22:08:27.369Z,17.20
2018-09-10T22:10:55.467Z,17.20
2018-09-10T22:13:23.601Z,17.20
2018-09-10T22:15:52.442Z,17.10
2018-09-10T22:18:20.542Z,17.10
2018-09-10T22:20:48.684Z,17.20
2018-09-10T22:23:16.850Z,17.20
2018-09-10T22:25:44.939Z,17.20
2018-09-10T22:28:13.083Z,17.20
2018-09-10T22:30:41.234Z,17.10
2018-09-10T22:33:09.412Z,17.10
2018-09-10T22:35:37.613Z,17.10
2018-09-10T22:38:05.689Z,17.00
2018-09-10T22:40:33.849Z,17.00
2018-09-10T22:43:01.942Z,16.80
2018-09-10T22:45:30.022Z,16.70
2018-09-10T22:47:58.152Z,16.70
2018-09-10T22:50:26.329Z,16.70
2018-09-10T22:52:54.410Z,16.70
2018-09-10T22:55:22.488Z,16.60
2018-09-10T22:57:50.583Z,16.70
2018-09-10T23:00:18.806Z,16.70
2018-09-10T23:02:46.923Z,16.60
2018-09-10T23:05:15.076Z,16.60
2018-09-10T23:07:43.207Z,16.50
2018-09-10T23:10:11.349Z,16.40
2018-09-10T23:12:39.434Z,16.40
2018-09-10T23:15:07.589Z,16.50
2018-09-10T23:17:35.711Z,16.40
2018-09-10T23:20:03.903Z,16.40
2018-09-10T23:22:31.982Z,16.40
2018-09-10T23:25:00.072Z,16.40
2018-09-10T23:27:28.274Z,16.40
2018-09-10T23:29:56.436Z,16.30
2018-09-10T23:32:24.523Z,16.30
2018-09-10T23:34:52.648Z,16.30
2018-09-10T23:37:20.710Z,16.20
2018-09-10T23:39:48.850Z,16.10
2018-09-10T23:42:17.036Z,16.20
2018-09-10T23:44:45.114Z,16.20
2018-09-10T23:47:13.208Z,16.20
2018-09-10T23:49:41.278Z,16.20
2018-09-10T23:52:09.421Z,16.20
2018-09-10T23:54:37.486Z,16.20
2018-09-10T23:57:05.632Z,16.10
2018-09-10T23:59:33.756Z,16.10
